This is the latest recevied weather packets stored in our database for station/object DG4MJS-10. If no packets are shown the sender has not sent any weather packets the latest 10 day(s).
| Time | Temp. | Humidity | Pressure | Rain* | Wind** | Luminosity | Snow |
|---|---|---|---|---|---|---|---|
| 1777490094 | 14.44° C | 32% | 1021.7 hPa | - | - | - | - |
| 1777489194 | 14.44° C | 32% | 1021.5 hPa | - | - | - | - |
| 1777488294 | 15° C | 31% | 1021.4 hPa | - | - | - | - |
| 1777487394 | 15° C | 32% | 1021.1 hPa | - | - | - | - |
| 1777486494 | 15.56° C | 35% | 1020.9 hPa | - | - | - | - |
| 1777485594 | 15.56° C | 33% | 1020.7 hPa | - | - | - | - |
| 1777484694 | 16.11° C | 36% | 1020.5 hPa | - | - | - | - |
| 1777483793 | 16.67° C | 36% | 1020.3 hPa | - | - | - | - |
| 1777482893 | 16.67° C | 36% | 1020.3 hPa | - | - | - | - |
| 1777481993 | 16.67° C | 34% | 1020.2 hPa | - | - | - | - |
| 1777481093 | 16.67° C | 37% | 1020.1 hPa | - | - | - | - |
| 1777480193 | 17.22° C | 31% | 1020 hPa | - | - | - | - |
| 1777479295 | 17.78° C | 33% | 1020 hPa | - | - | - | - |
| 1777478395 | 17.78° C | 33% | 1019.9 hPa | - | - | - | - |
| 1777477494 | 17.22° C | 36% | 1019.9 hPa | - | - | - | - |
| 1777476594 | 17.22° C | 39% | 1019.8 hPa | - | - | - | - |
| 1777475694 | 17.78° C | 35% | 1019.7 hPa | - | - | - | - |
| 1777474794 | 17.22° C | 39% | 1019.7 hPa | - | - | - | - |
| 1777473894 | 17.22° C | 39% | 1019.6 hPa | - | - | - | - |
| 1777472994 | 17.22° C | 39% | 1019.6 hPa | - | - | - | - |
| 1777472094 | 17.78° C | 37% | 1019.5 hPa | - | - | - | - |
| 1777471194 | 18.33° C | 36% | 1019.6 hPa | - | - | - | - |
| 1777470294 | 19.44° C | 32% | 1019.7 hPa | - | - | - | - |
| 1777469394 | 17.78° C | 37% | 1019.7 hPa | - | - | - | - |
| 1777468494 | 16.67° C | 40% | 1019.7 hPa | - | - | - | - |
* Rain since midnight (hover to see other rain measurements)
** Current wind speed in m/s (hover to see current wind gust speed)